createdAt,value
2017-08-17T00:00:45.023Z,19.70
2017-08-17T00:05:48.227Z,18.67
2017-08-17T00:10:51.438Z,15.23
2017-08-17T00:15:54.638Z,18.57
2017-08-17T00:20:57.825Z,16.83
2017-08-17T00:26:01.784Z,16.40
2017-08-17T00:31:04.971Z,17.23
2017-08-17T00:36:08.151Z,16.93
2017-08-17T00:41:11.346Z,20.60
2017-08-17T00:46:14.533Z,15.63
2017-08-17T00:51:17.728Z,16.50
2017-08-17T00:56:20.907Z,18.80
2017-08-17T01:01:24.194Z,15.03
2017-08-17T01:06:28.136Z,19.07
2017-08-17T01:11:31.323Z,16.93
2017-08-17T01:16:35.372Z,20.80
2017-08-17T01:21:39.277Z,17.40
2017-08-17T01:26:43.486Z,15.50
2017-08-17T01:31:46.658Z,18.90
2017-08-17T01:36:49.849Z,14.37
2017-08-17T01:41:53.010Z,14.20
2017-08-17T01:46:56.193Z,20.13
2017-08-17T01:51:59.370Z,17.20
2017-08-17T01:57:02.685Z,18.33
2017-08-17T02:02:05.874Z,16.63
2017-08-17T02:07:09.036Z,17.17
2017-08-17T02:12:12.197Z,17.90
2017-08-17T02:17:15.389Z,18.93
2017-08-17T02:22:18.604Z,21.97
2017-08-17T02:27:21.833Z,15.70
2017-08-17T02:32:25.053Z,15.80
2017-08-17T02:37:28.228Z,15.87
2017-08-17T02:42:31.529Z,17.07
2017-08-17T02:47:35.458Z,17.17
2017-08-17T02:52:38.653Z,17.63
2017-08-17T02:57:42.609Z,18.33
2017-08-17T03:02:45.824Z,17.33
2017-08-17T03:07:49.111Z,15.53
2017-08-17T03:12:52.341Z,13.80
2017-08-17T03:17:55.529Z,19.73
2017-08-17T03:22:58.704Z,17.33
2017-08-17T03:28:02.668Z,18.73
2017-08-17T03:33:05.870Z,18.73
2017-08-17T03:38:09.041Z,13.57
2017-08-17T03:43:13.001Z,13.87
2017-08-17T03:48:16.214Z,16.10
2017-08-17T03:53:19.749Z,16.07
2017-08-17T03:58:22.975Z,13.43
2017-08-17T04:03:26.206Z,16.10
2017-08-17T04:08:30.177Z,19.43
2017-08-17T04:13:33.850Z,12.27
2017-08-17T04:18:37.877Z,16.10
2017-08-17T04:23:41.072Z,20.53
2017-08-17T04:28:45.172Z,18.73
2017-08-17T04:33:48.356Z,21.70
2017-08-17T04:38:51.631Z,18.50
2017-08-17T04:43:54.851Z,12.87
2017-08-17T04:48:58.032Z,14.23
2017-08-17T04:54:01.993Z,20.23
2017-08-17T04:59:05.200Z,15.60
2017-08-17T05:04:08.401Z,13.83
2017-08-17T05:09:11.594Z,16.33
2017-08-17T05:14:14.902Z,14.77
2017-08-17T05:19:18.824Z,19.03
2017-08-17T05:24:21.998Z,14.80
2017-08-17T05:29:25.196Z,18.90
2017-08-17T05:34:28.374Z,14.20
2017-08-17T05:39:31.558Z,16.50
2017-08-17T05:44:35.661Z,17.90
2017-08-17T05:49:39.613Z,21.40
2017-08-17T05:54:42.806Z,16.63
2017-08-17T05:59:46.031Z,17.73
2017-08-17T06:04:49.251Z,15.23
2017-08-17T06:09:52.437Z,15.00
2017-08-17T06:14:55.651Z,11.67
2017-08-17T06:19:58.866Z,15.40
2017-08-17T06:25:02.065Z,15.00
2017-08-17T06:30:05.254Z,13.73
2017-08-17T06:35:09.206Z,16.97
2017-08-17T06:40:12.362Z,16.20
2017-08-17T06:45:16.360Z,16.20
2017-08-17T06:50:19.537Z,14.73
2017-08-17T06:55:22.741Z,12.33
2017-08-17T07:00:25.937Z,16.93
2017-08-17T07:05:29.126Z,13.67
2017-08-17T07:10:33.069Z,13.97
2017-08-17T07:15:36.369Z,15.37
2017-08-17T07:20:40.341Z,13.33
2017-08-17T07:25:43.605Z,16.80
2017-08-17T07:30:47.536Z,22.07
2017-08-17T07:35:50.774Z,14.20
2017-08-17T07:40:55.233Z,13.47
2017-08-17T07:45:58.469Z,18.33
2017-08-17T07:51:02.413Z,22.77
2017-08-17T07:56:05.598Z,18.50
2017-08-17T08:01:09.570Z,19.80
2017-08-17T08:06:12.742Z,22.17
2017-08-17T08:11:15.967Z,23.03
2017-08-17T08:16:19.191Z,20.47
2017-08-17T08:21:22.460Z,19.40
2017-08-17T08:26:26.437Z,26.20
2017-08-17T08:31:29.641Z,28.20
2017-08-17T08:36:33.153Z,27.63
2017-08-17T08:41:36.358Z,25.57
2017-08-17T08:46:39.649Z,24.07
2017-08-17T08:51:42.980Z,22.70
2017-08-17T08:56:46.178Z,19.00
2017-08-17T09:01:49.358Z,23.33
2017-08-17T09:06:52.582Z,23.83
2017-08-17T09:11:55.774Z,21.70
2017-08-17T09:16:59.009Z,25.47
2017-08-17T09:22:02.358Z,23.57
2017-08-17T09:27:06.326Z,23.40
2017-08-17T09:32:09.534Z,19.97
2017-08-17T09:37:12.837Z,20.93
2017-08-17T09:42:16.063Z,25.60
2017-08-17T09:47:19.226Z,18.70
2017-08-17T09:52:22.412Z,25.73
2017-08-17T09:57:26.379Z,22.43
2017-08-17T10:02:29.583Z,23.00
2017-08-17T10:07:32.760Z,20.70
2017-08-17T10:12:36.750Z,18.93
2017-08-17T10:17:39.945Z,16.83
2017-08-17T10:22:43.150Z,18.40
2017-08-17T10:27:46.346Z,17.83
2017-08-17T10:32:49.550Z,18.47
2017-08-17T10:37:52.736Z,16.90
2017-08-17T10:42:55.921Z,16.50
2017-08-17T10:47:59.876Z,22.60
2017-08-17T10:53:03.085Z,15.10
2017-08-17T10:58:06.262Z,13.50
2017-08-17T11:03:10.231Z,15.90
2017-08-17T11:08:13.411Z,13.37
2017-08-17T11:13:16.633Z,15.20
2017-08-17T11:18:19.794Z,17.00
2017-08-17T11:23:23.018Z,14.53
2017-08-17T11:28:26.998Z,10.13
2017-08-17T11:33:30.187Z,13.20
2017-08-17T11:38:33.381Z,13.13
2017-08-17T11:43:36.582Z,30.00
2017-08-17T11:48:38.982Z,9.33
2017-08-17T11:53:42.169Z,8.23
2017-08-17T11:58:45.352Z,7.07
2017-08-17T12:03:49.321Z,8.97
2017-08-17T12:08:52.637Z,5.60
2017-08-17T12:13:55.790Z,5.70
2017-08-17T12:18:59.736Z,6.47
2017-08-17T12:24:02.945Z,6.70
2017-08-17T12:29:06.881Z,7.50
2017-08-17T12:34:10.106Z,5.60
2017-08-17T12:39:13.388Z,6.23
2017-08-17T12:44:17.375Z,7.63
2017-08-17T12:49:20.576Z,5.63
2017-08-17T12:54:23.753Z,5.83
2017-08-17T12:59:27.085Z,5.33
2017-08-17T13:04:30.231Z,5.07
2017-08-17T13:09:33.408Z,5.70
2017-08-17T13:14:36.580Z,5.60
2017-08-17T13:19:39.773Z,7.57
2017-08-17T13:24:42.973Z,6.77
2017-08-17T13:29:46.170Z,5.33
2017-08-17T13:34:49.372Z,7.30
2017-08-17T13:39:52.574Z,5.60
2017-08-17T13:44:56.526Z,8.90
2017-08-17T13:49:59.706Z,4.53
2017-08-17T13:55:03.688Z,7.57
2017-08-17T14:00:06.856Z,6.23
2017-08-17T14:05:10.043Z,7.27
2017-08-17T14:10:14.032Z,4.70
2017-08-17T14:15:17.210Z,3.40
2017-08-17T14:20:20.389Z,6.97
2017-08-17T14:25:23.592Z,5.23
2017-08-17T14:30:27.537Z,4.10
2017-08-17T14:35:30.730Z,5.13
2017-08-17T14:40:33.917Z,7.80
2017-08-17T14:45:37.893Z,3.47
2017-08-17T14:50:41.086Z,4.13
2017-08-17T14:55:44.274Z,2.90
2017-08-17T15:00:47.493Z,2.70
2017-08-17T15:05:50.713Z,6.43
2017-08-17T15:10:53.890Z,3.83
2017-08-17T15:15:57.077Z,3.40
2017-08-17T15:21:01.030Z,3.00
2017-08-17T15:26:04.226Z,4.10
2017-08-17T15:31:07.588Z,7.07
2017-08-17T15:36:10.761Z,3.23
2017-08-17T15:41:13.948Z,5.60
2017-08-17T15:46:17.071Z,4.43
2017-08-17T15:51:20.269Z,4.23
2017-08-17T15:56:23.494Z,5.00
2017-08-17T16:01:26.676Z,2.60
2017-08-17T16:06:30.101Z,3.33
2017-08-17T16:11:33.297Z,4.60
2017-08-17T16:16:36.475Z,2.83
2017-08-17T16:21:39.675Z,11.27
2017-08-17T16:26:42.894Z,5.07
2017-08-17T16:31:46.094Z,3.10
2017-08-17T16:36:49.298Z,2.23
2017-08-17T16:41:52.517Z,2.93
2017-08-17T16:46:55.698Z,3.17
2017-08-17T16:51:58.850Z,3.70
2017-08-17T16:57:02.043Z,3.90
2017-08-17T17:02:06.022Z,4.10
2017-08-17T17:07:09.200Z,4.77
2017-08-17T17:12:12.414Z,3.87
2017-08-17T17:17:15.622Z,3.50
2017-08-17T17:22:18.832Z,3.93
2017-08-17T17:27:22.116Z,3.70
2017-08-17T17:32:25.297Z,6.40
2017-08-17T17:37:29.253Z,4.00
2017-08-17T17:42:32.451Z,8.70
2017-08-17T17:48:04.878Z,3.57
2017-08-17T17:53:08.067Z,2.57
2017-08-17T17:58:11.276Z,7.07
2017-08-17T18:03:14.481Z,2.63
2017-08-17T18:08:17.735Z,5.20
2017-08-17T18:13:20.941Z,5.37
2017-08-17T18:18:24.132Z,3.00
2017-08-17T18:23:27.332Z,2.43
2017-08-17T18:28:30.542Z,3.87
2017-08-17T18:33:33.761Z,4.70
2017-08-17T18:38:36.994Z,6.20
2017-08-17T18:43:40.216Z,3.20
2017-08-17T18:48:43.415Z,8.13
2017-08-17T18:53:46.622Z,2.57
2017-08-17T18:58:49.859Z,3.27
2017-08-17T19:03:53.066Z,4.62
2017-08-17T19:08:56.267Z,3.17
2017-08-17T19:13:59.507Z,5.00
2017-08-17T19:19:03.459Z,7.78
2017-08-17T19:24:06.674Z,2.53
2017-08-17T19:29:09.880Z,7.83
2017-08-17T19:34:13.109Z,4.40
2017-08-17T19:39:16.301Z,2.90
2017-08-17T19:44:19.488Z,3.00
2017-08-17T19:49:22.677Z,2.90
2017-08-17T19:54:25.969Z,3.00
2017-08-17T19:59:29.185Z,2.43
2017-08-17T20:04:32.359Z,4.33
2017-08-17T20:09:35.559Z,3.30
2017-08-17T20:14:38.817Z,3.43
2017-08-17T20:19:42.105Z,3.03
2017-08-17T20:24:45.310Z,4.03
2017-08-17T20:29:48.519Z,4.23
2017-08-17T20:34:51.710Z,8.77
2017-08-17T20:39:54.917Z,3.67
2017-08-17T20:44:58.103Z,3.13
2017-08-17T20:50:01.302Z,3.10
2017-08-17T20:55:04.486Z,4.87
2017-08-17T21:00:07.699Z,2.60
2017-08-17T21:05:10.898Z,4.70
2017-08-17T21:10:14.121Z,5.90
2017-08-17T21:15:17.332Z,4.23
2017-08-17T21:20:20.507Z,6.07
2017-08-17T21:25:23.741Z,4.03
2017-08-17T21:30:26.918Z,4.73
2017-08-17T21:35:30.106Z,4.83
2017-08-17T21:40:33.293Z,3.80
2017-08-17T21:45:36.493Z,5.83
2017-08-17T21:50:39.861Z,4.17
2017-08-17T21:55:43.032Z,3.33
2017-08-17T22:00:46.273Z,5.40
2017-08-17T22:05:49.753Z,4.13
2017-08-17T22:10:53.025Z,4.70
2017-08-17T22:15:56.266Z,7.50
2017-08-17T22:20:59.458Z,4.60
2017-08-17T22:26:02.648Z,5.27
2017-08-17T22:31:05.837Z,4.63
2017-08-17T22:36:09.027Z,4.57
2017-08-17T22:41:12.214Z,3.07
2017-08-17T22:46:15.412Z,4.73
2017-08-17T22:51:18.604Z,9.93
2017-08-17T22:56:21.894Z,6.30
2017-08-17T23:01:25.077Z,6.30
2017-08-17T23:06:28.315Z,6.70
2017-08-17T23:11:31.524Z,4.40
2017-08-17T23:16:34.706Z,4.03
2017-08-17T23:21:37.885Z,3.97
2017-08-17T23:26:41.070Z,5.40
2017-08-17T23:31:44.253Z,4.83
2017-08-17T23:36:47.437Z,5.93
2017-08-17T23:41:50.638Z,3.43
2017-08-17T23:46:53.826Z,2.57
2017-08-17T23:51:57.020Z,2.97
2017-08-17T23:57:00.205Z,6.13
